createdAt,value
2023-02-21T00:00:06.449Z,6.90
2023-02-21T00:02:59.059Z,7.90
2023-02-21T00:05:46.251Z,8.20
2023-02-21T00:08:33.244Z,7.80
2023-02-21T00:11:19.706Z,9.50
2023-02-21T00:14:07.124Z,9.60
2023-02-21T00:16:53.778Z,9.00
2023-02-21T00:19:41.388Z,9.70
2023-02-21T00:22:28.737Z,9.30
2023-02-21T00:25:16.415Z,8.30
2023-02-21T00:28:02.910Z,9.40
2023-02-21T00:30:50.025Z,9.20
2023-02-21T00:33:37.346Z,5.80
2023-02-21T00:36:23.973Z,8.70
2023-02-21T00:39:10.805Z,8.30
2023-02-21T00:41:58.513Z,6.90
2023-02-21T00:44:45.245Z,6.50
2023-02-21T00:47:31.792Z,7.80
2023-02-21T00:50:18.379Z,7.00
2023-02-21T00:53:05.353Z,6.30
2023-02-21T00:55:51.955Z,8.30
2023-02-21T00:58:41.861Z,8.50
2023-02-21T01:01:28.797Z,8.90
2023-02-21T01:04:17.152Z,7.40
2023-02-21T01:07:09.686Z,8.50
2023-02-21T01:09:56.275Z,9.20
2023-02-21T01:12:44.962Z,9.70
2023-02-21T01:15:32.761Z,12.70
2023-02-21T01:18:19.491Z,7.90
2023-02-21T01:21:05.885Z,8.50
2023-02-21T01:23:53.782Z,9.40
2023-02-21T01:26:40.560Z,9.70
2023-02-21T01:29:27.353Z,8.50
2023-02-21T01:32:14.640Z,6.30
2023-02-21T01:35:01.717Z,7.60
2023-02-21T01:37:48.444Z,7.30
2023-02-21T01:40:36.539Z,7.40
2023-02-21T01:43:42.198Z,8.20
2023-02-21T01:46:34.430Z,8.00
2023-02-21T01:49:33.196Z,6.00
2023-02-21T01:52:22.335Z,5.10
2023-02-21T01:55:12.595Z,5.90
2023-02-21T01:57:59.243Z,8.20
2023-02-21T02:00:46.461Z,7.60
2023-02-21T02:03:35.292Z,5.40
2023-02-21T02:09:16.744Z,12.40
2023-02-21T02:12:25.130Z,5.30
2023-02-21T02:15:21.756Z,5.80
2023-02-21T02:18:01.850Z,6.50
2023-02-21T02:21:28.844Z,3.00
2023-02-21T02:24:34.313Z,8.00
2023-02-21T02:27:40.304Z,5.80
2023-02-21T02:30:14.950Z,7.70
2023-02-21T02:33:08.313Z,5.80
2023-02-21T02:35:46.573Z,3.80
2023-02-21T02:38:25.847Z,5.00
2023-02-21T02:41:28.269Z,4.80
2023-02-21T02:44:02.661Z,5.50
2023-02-21T02:46:32.213Z,3.90
2023-02-21T02:49:07.674Z,5.70
2023-02-21T02:51:35.755Z,6.60
2023-02-21T02:54:05.774Z,5.60
2023-02-21T02:56:37.105Z,5.60
2023-02-21T02:59:10.619Z,4.00
2023-02-21T03:01:55.553Z,4.60
2023-02-21T03:04:53.114Z,3.20
2023-02-21T03:07:51.197Z,5.40
2023-02-21T03:10:22.157Z,4.50
2023-02-21T03:13:02.436Z,3.70
2023-02-21T03:16:07.322Z,4.40
2023-02-21T03:18:42.083Z,6.30
2023-02-21T03:21:17.315Z,2.50
2023-02-21T03:23:45.458Z,4.60
2023-02-21T03:26:13.391Z,3.40
2023-02-21T03:28:44.352Z,4.00
2023-02-21T03:31:13.185Z,4.50
2023-02-21T03:33:41.541Z,3.80
2023-02-21T03:36:09.852Z,4.20
2023-02-21T03:38:38.219Z,4.50
2023-02-21T03:41:06.930Z,6.70
2023-02-21T03:43:36.016Z,3.80
2023-02-21T03:46:04.372Z,6.20
2023-02-21T03:48:33.024Z,2.90
2023-02-21T03:51:21.946Z,8.60
2023-02-21T03:53:50.902Z,9.30
2023-02-21T03:56:21.780Z,7.60
2023-02-21T03:59:17.512Z,3.10
2023-02-21T04:01:45.601Z,3.60
2023-02-21T04:04:20.204Z,5.20
2023-02-21T04:06:58.170Z,3.90
2023-02-21T04:09:27.369Z,3.40
2023-02-21T04:11:56.338Z,4.50
2023-02-21T04:14:25.008Z,3.50
2023-02-21T04:16:53.223Z,7.30
2023-02-21T04:19:21.356Z,5.30
2023-02-21T04:21:50.494Z,4.50
2023-02-21T04:24:18.903Z,6.40
2023-02-21T04:26:52.418Z,5.00
2023-02-21T04:29:20.904Z,7.60
2023-02-21T04:31:49.470Z,4.20
2023-02-21T04:34:18.657Z,5.70
2023-02-21T04:36:47.566Z,4.80
2023-02-21T04:39:17.302Z,8.40
2023-02-21T04:41:45.404Z,3.20
2023-02-21T04:44:13.648Z,6.00
2023-02-21T04:46:41.627Z,3.10
2023-02-21T04:49:10.924Z,4.00
2023-02-21T04:51:39.246Z,5.60
2023-02-21T04:54:07.965Z,9.00
2023-02-21T04:56:37.953Z,7.50
2023-02-21T04:59:08.004Z,5.70
2023-02-21T05:01:36.236Z,8.50
2023-02-21T05:04:04.737Z,3.30
2023-02-21T05:06:34.539Z,6.90
2023-02-21T05:09:03.001Z,6.40
2023-02-21T05:11:34.758Z,4.00
2023-02-21T05:14:03.898Z,6.70
2023-02-21T05:16:32.139Z,6.10
2023-02-21T05:19:02.883Z,5.50
2023-02-21T05:21:35.161Z,6.40
2023-02-21T05:24:04.702Z,3.60
2023-02-21T05:26:35.442Z,5.00
2023-02-21T05:29:04.884Z,5.80
2023-02-21T05:31:33.839Z,7.60
2023-02-21T05:34:02.153Z,6.50
2023-02-21T05:36:30.313Z,7.80
2023-02-21T05:38:58.474Z,3.30
2023-02-21T05:41:26.957Z,10.00
2023-02-21T05:43:55.226Z,6.50
2023-02-21T05:46:25.448Z,7.10
2023-02-21T05:48:54.021Z,5.10
2023-02-21T05:51:22.009Z,3.30
2023-02-21T05:53:50.106Z,7.10
2023-02-21T05:56:17.992Z,4.60
2023-02-21T05:58:45.893Z,3.50
2023-02-21T06:01:14.173Z,5.80
2023-02-21T06:03:43.231Z,5.00
2023-02-21T06:06:11.427Z,5.00
2023-02-21T06:08:46.982Z,5.90
2023-02-21T06:11:21.521Z,7.50
2023-02-21T06:13:52.590Z,8.30
2023-02-21T06:16:21.434Z,4.90
2023-02-21T06:18:51.279Z,8.80
2023-02-21T06:21:19.168Z,4.70
2023-02-21T06:23:47.285Z,5.00
2023-02-21T06:26:18.838Z,6.00
2023-02-21T06:28:47.250Z,8.40
2023-02-21T06:31:16.623Z,5.70
2023-02-21T06:33:44.892Z,9.00
2023-02-21T06:36:15.005Z,6.50
2023-02-21T06:38:51.427Z,9.60
2023-02-21T06:41:20.613Z,4.40
2023-02-21T06:43:49.769Z,3.50
2023-02-21T06:46:19.076Z,5.60
2023-02-21T06:48:47.068Z,6.40
2023-02-21T06:51:15.270Z,5.90
2023-02-21T06:53:43.907Z,9.20
2023-02-21T06:56:12.086Z,4.20
2023-02-21T06:58:39.969Z,9.70
2023-02-21T07:01:07.973Z,12.20
2023-02-21T07:03:39.777Z,4.40
2023-02-21T07:06:07.662Z,3.70
2023-02-21T07:08:37.768Z,7.80
2023-02-21T07:11:08.414Z,7.10
2023-02-21T07:13:36.913Z,4.70
2023-02-21T07:16:05.825Z,4.00
2023-02-21T07:18:37.868Z,6.40
2023-02-21T07:21:06.269Z,6.40
2023-02-21T07:23:34.264Z,7.10
2023-02-21T07:26:02.749Z,10.80
2023-02-21T07:28:30.845Z,6.50
2023-02-21T07:30:58.755Z,6.20
2023-02-21T07:33:27.031Z,5.80
2023-02-21T07:35:55.102Z,5.70
2023-02-21T07:38:24.141Z,3.70
2023-02-21T07:40:54.804Z,7.30
2023-02-21T07:43:22.702Z,4.40
2023-02-21T07:45:51.379Z,5.40
2023-02-21T07:48:19.510Z,6.90
2023-02-21T07:50:47.530Z,6.20
2023-02-21T07:53:15.867Z,4.50
2023-02-21T07:55:44.301Z,7.90
2023-02-21T07:58:32.067Z,7.30
2023-02-21T08:01:06.810Z,6.20
2023-02-21T08:03:34.813Z,5.80
2023-02-21T08:06:02.940Z,3.30
2023-02-21T08:08:31.534Z,5.40
2023-02-21T08:10:59.809Z,10.80
2023-02-21T08:13:28.779Z,3.80
2023-02-21T08:15:56.961Z,7.40
2023-02-21T08:18:25.755Z,5.60
2023-02-21T08:20:54.814Z,4.40
2023-02-21T08:23:23.018Z,7.30
2023-02-21T08:25:51.511Z,7.70
2023-02-21T08:28:19.682Z,4.70
2023-02-21T08:30:48.077Z,10.30
2023-02-21T08:33:16.901Z,4.20
2023-02-21T08:35:44.899Z,6.40
2023-02-21T08:38:12.976Z,6.50
2023-02-21T08:40:40.989Z,6.40
2023-02-21T08:43:08.986Z,9.60
2023-02-21T08:45:36.957Z,4.80
2023-02-21T08:48:05.376Z,4.50
2023-02-21T08:50:33.760Z,8.70
2023-02-21T08:53:01.948Z,5.30
2023-02-21T08:55:29.904Z,8.60
2023-02-21T08:57:59.020Z,7.50
2023-02-21T09:00:30.372Z,4.70
2023-02-21T09:02:59.737Z,7.60
2023-02-21T09:05:29.266Z,4.90
2023-02-21T09:08:01.833Z,4.20
2023-02-21T09:10:34.007Z,6.20
2023-02-21T09:13:02.838Z,4.00
2023-02-21T09:15:31.932Z,6.50
2023-02-21T09:18:01.076Z,5.70
2023-02-21T09:20:29.258Z,6.60
2023-02-21T09:22:57.562Z,3.60
2023-02-21T09:25:25.628Z,6.70
2023-02-21T09:27:54.979Z,4.50
2023-02-21T09:30:26.373Z,7.60
2023-02-21T09:32:55.177Z,6.50
2023-02-21T09:35:23.635Z,6.20
2023-02-21T09:37:52.303Z,5.30
2023-02-21T09:40:32.688Z,2.30
2023-02-21T09:43:00.972Z,6.70
2023-02-21T09:45:31.746Z,4.70
2023-02-21T09:48:05.677Z,5.90
2023-02-21T09:50:40.664Z,7.40
2023-02-21T09:53:08.812Z,8.00
2023-02-21T09:55:38.587Z,5.50
2023-02-21T09:58:11.921Z,5.60
2023-02-21T10:00:40.150Z,6.30
2023-02-21T10:03:31.754Z,9.20
2023-02-21T10:06:15.970Z,4.30
2023-02-21T10:09:16.465Z,7.10
2023-02-21T10:12:13.251Z,4.90
2023-02-21T10:15:19.387Z,5.70
2023-02-21T10:17:53.691Z,7.80
2023-02-21T10:20:29.822Z,4.60
2023-02-21T10:22:58.967Z,8.20
2023-02-21T10:25:30.228Z,7.50
2023-02-21T10:27:59.150Z,5.70
2023-02-21T10:30:36.472Z,4.40
2023-02-21T10:33:07.851Z,5.60
2023-02-21T10:35:37.052Z,9.40
2023-02-21T10:38:19.409Z,6.30
2023-02-21T10:40:51.343Z,9.70
2023-02-21T10:43:26.641Z,10.90
2023-02-21T10:46:19.328Z,8.30
2023-02-21T10:48:48.758Z,5.70
2023-02-21T10:51:29.290Z,6.50
2023-02-21T10:54:20.256Z,10.60
2023-02-21T10:56:50.030Z,7.90
2023-02-21T10:59:29.023Z,6.90
2023-02-21T11:01:57.209Z,5.40
2023-02-21T11:04:29.810Z,9.60
2023-02-21T11:07:07.323Z,4.50
2023-02-21T11:09:43.385Z,7.70
2023-02-21T11:12:20.283Z,4.30
2023-02-21T11:14:51.322Z,3.70
2023-02-21T11:17:29.413Z,7.40
2023-02-21T11:20:00.967Z,3.80
2023-02-21T11:22:35.426Z,4.80
2023-02-21T11:25:26.353Z,8.20
2023-02-21T11:28:13.160Z,4.80
2023-02-21T11:30:51.722Z,4.70
2023-02-21T11:33:22.739Z,3.00
2023-02-21T11:35:52.681Z,3.10
2023-02-21T11:38:31.072Z,6.60
2023-02-21T11:40:59.200Z,4.80
2023-02-21T11:43:31.098Z,2.90
2023-02-21T11:46:17.401Z,5.00
2023-02-21T11:48:45.434Z,2.60
2023-02-21T11:51:44.699Z,3.20
2023-02-21T11:54:12.855Z,4.70
2023-02-21T11:57:06.783Z,4.80
2023-02-21T11:59:48.101Z,4.60
2023-02-21T12:02:42.839Z,4.80
2023-02-21T12:05:16.989Z,4.80
2023-02-21T12:08:16.801Z,3.90
2023-02-21T12:11:19.259Z,4.10
2023-02-21T12:13:53.133Z,2.70
2023-02-21T12:16:39.578Z,5.00
2023-02-21T12:19:22.728Z,2.90
2023-02-21T12:22:03.404Z,4.70
2023-02-21T12:24:58.144Z,6.40
2023-02-21T12:27:51.691Z,5.90
2023-02-21T12:30:30.997Z,2.90
2023-02-21T12:33:25.899Z,3.60
2023-02-21T12:36:12.267Z,2.80
2023-02-21T12:39:01.601Z,2.70
2023-02-21T12:41:43.956Z,1.60
2023-02-21T12:44:36.405Z,7.00
2023-02-21T12:47:20.434Z,3.60
2023-02-21T12:49:54.313Z,4.60
2023-02-21T12:52:36.546Z,3.70
2023-02-21T12:55:06.705Z,4.00
2023-02-21T12:57:57.299Z,4.30
2023-02-21T13:00:52.746Z,5.20
2023-02-21T13:03:55.634Z,2.50
2023-02-21T13:06:31.643Z,4.90
2023-02-21T13:09:07.957Z,3.30
2023-02-21T13:12:01.114Z,2.90
2023-02-21T13:14:37.246Z,3.30
2023-02-21T13:17:10.160Z,5.20
2023-02-21T13:20:06.380Z,3.80
2023-02-21T13:23:31.524Z,4.90
2023-02-21T13:26:39.685Z,2.60
2023-02-21T13:29:34.731Z,2.90
2023-02-21T13:32:08.143Z,3.20
2023-02-21T13:34:41.042Z,1.90
2023-02-21T13:37:16.320Z,2.90
2023-02-21T13:39:45.923Z,3.50
2023-02-21T13:42:19.509Z,1.90
2023-02-21T13:44:49.223Z,3.40
2023-02-21T13:47:18.906Z,2.10
2023-02-21T13:49:53.769Z,2.70
2023-02-21T13:52:24.918Z,1.70
2023-02-21T13:55:11.651Z,5.20
2023-02-21T13:57:44.117Z,4.30
2023-02-21T14:00:21.694Z,2.90
2023-02-21T14:02:56.431Z,2.60
2023-02-21T14:05:24.950Z,2.40
2023-02-21T14:08:08.731Z,3.60
2023-02-21T14:11:12.969Z,2.40
2023-02-21T14:13:44.153Z,1.30
2023-02-21T14:16:13.695Z,1.80
2023-02-21T14:18:59.111Z,1.30
2023-02-21T14:21:40.370Z,2.50
2023-02-21T14:24:28.018Z,2.00
2023-02-21T14:26:58.456Z,1.20
2023-02-21T14:29:32.745Z,3.90
2023-02-21T14:32:02.807Z,1.80
2023-02-21T14:34:39.824Z,1.80
2023-02-21T14:37:16.636Z,3.10
2023-02-21T14:39:48.870Z,1.40
2023-02-21T14:42:22.637Z,1.90
2023-02-21T14:45:10.905Z,1.40
2023-02-21T14:47:57.388Z,1.90
2023-02-21T14:51:03.774Z,1.90
2023-02-21T14:53:44.137Z,1.80
2023-02-21T14:56:48.149Z,2.20
2023-02-21T14:59:19.619Z,0.70
2023-02-21T15:02:06.440Z,1.30
2023-02-21T15:04:39.633Z,1.80
2023-02-21T15:07:10.770Z,1.20
2023-02-21T15:09:42.749Z,1.40
2023-02-21T15:12:17.503Z,3.20
2023-02-21T15:14:50.809Z,1.80
2023-02-21T15:17:24.769Z,1.30
2023-02-21T15:20:25.588Z,3.60
2023-02-21T15:22:58.117Z,1.80
2023-02-21T15:25:26.482Z,2.60
2023-02-21T15:27:56.876Z,2.60
2023-02-21T15:30:36.898Z,2.90
2023-02-21T15:33:12.822Z,4.50
2023-02-21T15:35:45.007Z,4.50
2023-02-21T15:38:20.578Z,2.50
2023-02-21T15:40:48.970Z,2.70
2023-02-21T15:43:50.974Z,2.80
2023-02-21T15:46:25.539Z,8.70
2023-02-21T15:48:54.371Z,3.70
2023-02-21T15:51:23.004Z,5.40
2023-02-21T15:54:11.334Z,5.00
2023-02-21T15:56:39.914Z,4.10
2023-02-21T15:59:19.081Z,5.90
2023-02-21T16:02:16.818Z,4.40
2023-02-21T16:04:51.798Z,4.10
2023-02-21T16:07:34.960Z,5.40
2023-02-21T16:10:06.144Z,8.20
2023-02-21T16:12:44.730Z,3.70
2023-02-21T16:15:25.987Z,4.60
2023-02-21T16:18:04.052Z,7.00
2023-02-21T16:23:26.445Z,2.10
2023-02-21T16:26:28.126Z,2.60
2023-02-21T16:29:00.116Z,3.50
2023-02-21T16:31:30.442Z,2.30
2023-02-21T16:33:58.405Z,2.50
2023-02-21T16:36:28.217Z,2.50
2023-02-21T16:38:56.941Z,3.50
2023-02-21T16:41:25.468Z,2.50
2023-02-21T16:43:54.505Z,2.20
2023-02-21T16:46:29.422Z,2.20
2023-02-21T16:49:00.050Z,2.20
2023-02-21T16:51:33.772Z,1.70
2023-02-21T16:54:03.974Z,1.50
2023-02-21T16:56:32.259Z,1.50
2023-02-21T16:59:00.149Z,1.80
2023-02-21T17:01:29.619Z,2.00
2023-02-21T17:03:57.796Z,2.10
2023-02-21T17:06:26.310Z,1.50
2023-02-21T17:08:54.445Z,2.70
2023-02-21T17:11:22.542Z,1.70
2023-02-21T17:13:51.524Z,3.00
2023-02-21T17:16:19.664Z,2.60
2023-02-21T17:18:48.224Z,4.10
2023-02-21T17:21:16.882Z,3.50
2023-02-21T17:23:45.270Z,6.90
2023-02-21T17:26:13.532Z,2.70
2023-02-21T17:28:41.664Z,6.20
2023-02-21T17:31:09.793Z,4.60
2023-02-21T17:33:38.721Z,4.10
2023-02-21T17:36:07.533Z,2.90
2023-02-21T17:38:35.641Z,5.50
2023-02-21T17:41:04.251Z,7.10
2023-02-21T17:43:32.124Z,13.70
2023-02-21T17:46:00.618Z,27.10
2023-02-21T17:48:29.541Z,22.30
2023-02-21T17:50:58.792Z,21.30
2023-02-21T17:53:28.217Z,9.10
2023-02-21T17:55:57.409Z,13.80
2023-02-21T17:58:27.183Z,30.70
2023-02-21T18:00:55.507Z,15.60
2023-02-21T18:03:23.769Z,38.90
2023-02-21T18:05:51.749Z,21.50
2023-02-21T18:08:19.801Z,24.70
2023-02-21T18:10:48.049Z,31.00
2023-02-21T18:13:22.655Z,10.30
2023-02-21T18:15:50.633Z,5.80
2023-02-21T18:18:19.118Z,2.00
2023-02-21T18:20:47.422Z,1.90
2023-02-21T18:23:15.758Z,3.90
2023-02-21T18:25:44.490Z,3.40
2023-02-21T18:28:12.562Z,1.50
2023-02-21T18:30:41.964Z,2.00
2023-02-21T18:33:10.103Z,3.10
2023-02-21T18:35:40.965Z,2.30
2023-02-21T18:38:09.078Z,2.10
2023-02-21T18:40:44.607Z,1.90
2023-02-21T18:43:24.756Z,2.10
2023-02-21T18:45:53.177Z,1.40
2023-02-21T18:48:22.250Z,3.30
2023-02-21T18:50:50.297Z,2.70
2023-02-21T18:53:18.619Z,2.30
2023-02-21T18:55:46.632Z,2.90
2023-02-21T18:58:14.577Z,1.80
2023-02-21T19:00:43.090Z,1.80
2023-02-21T19:03:13.071Z,2.20
2023-02-21T19:05:41.325Z,2.30
2023-02-21T19:08:09.260Z,2.70
2023-02-21T19:10:37.759Z,1.70
2023-02-21T19:13:05.772Z,2.20
2023-02-21T19:15:35.249Z,2.80
2023-02-21T19:18:03.854Z,7.60
2023-02-21T19:20:32.042Z,24.40
2023-02-21T19:23:00.727Z,7.00
2023-02-21T19:25:30.943Z,3.10
2023-02-21T19:28:02.356Z,2.70
2023-02-21T19:30:34.476Z,3.50
2023-02-21T19:33:04.189Z,1.80
2023-02-21T19:35:33.858Z,1.10
2023-02-21T19:38:04.508Z,1.40
2023-02-21T19:40:33.456Z,1.60
2023-02-21T19:43:01.622Z,2.70
2023-02-21T19:45:30.172Z,1.60
2023-02-21T19:47:58.913Z,3.10
2023-02-21T19:50:26.861Z,3.70
2023-02-21T19:52:58.818Z,1.70
2023-02-21T19:55:28.339Z,2.10
2023-02-21T19:57:56.529Z,1.40
2023-02-21T20:00:27.359Z,3.30
2023-02-21T20:02:55.733Z,1.30
2023-02-21T20:05:23.671Z,1.60
2023-02-21T20:07:51.843Z,1.90
2023-02-21T20:10:25.257Z,2.00
2023-02-21T20:12:55.373Z,2.60
2023-02-21T20:15:24.000Z,4.20
2023-02-21T20:17:56.478Z,2.70
2023-02-21T20:20:24.699Z,2.90
2023-02-21T20:22:52.678Z,3.10
2023-02-21T20:25:22.302Z,2.80
2023-02-21T20:27:50.689Z,2.50
2023-02-21T20:30:18.918Z,1.80
2023-02-21T20:32:47.419Z,2.90
2023-02-21T20:35:15.481Z,1.80
2023-02-21T20:37:43.572Z,2.30
2023-02-21T20:40:15.424Z,2.00
2023-02-21T20:42:44.427Z,1.40
2023-02-21T20:45:12.319Z,2.50
2023-02-21T20:47:40.970Z,1.50
2023-02-21T20:50:09.059Z,1.90
2023-02-21T20:52:37.100Z,1.90
2023-02-21T20:55:05.720Z,2.90
2023-02-21T20:57:34.944Z,1.50
2023-02-21T21:00:09.089Z,2.50
2023-02-21T21:02:37.466Z,1.60
2023-02-21T21:05:13.723Z,1.90
2023-02-21T21:07:46.128Z,3.10
2023-02-21T21:10:15.754Z,2.20
2023-02-21T21:12:43.827Z,1.50
2023-02-21T21:15:14.398Z,2.00
2023-02-21T21:17:42.761Z,1.20
2023-02-21T21:20:17.660Z,1.40
2023-02-21T21:22:45.930Z,1.50
2023-02-21T21:25:15.542Z,1.80
2023-02-21T21:27:44.814Z,2.90
2023-02-21T21:30:18.223Z,2.30
2023-02-21T21:32:46.678Z,3.10
2023-02-21T21:35:16.985Z,1.40
2023-02-21T21:37:44.865Z,2.10
2023-02-21T21:40:16.422Z,2.50
2023-02-21T21:42:49.064Z,2.00
2023-02-21T21:45:25.448Z,3.40
2023-02-21T21:47:58.562Z,2.00
2023-02-21T21:50:27.062Z,2.90
2023-02-21T21:52:58.460Z,3.00
2023-02-21T21:55:28.684Z,3.10
2023-02-21T21:57:58.814Z,1.90
2023-02-21T22:00:29.644Z,4.00
2023-02-21T22:02:58.897Z,2.90
2023-02-21T22:05:31.661Z,5.10
2023-02-21T22:07:59.816Z,3.20
2023-02-21T22:10:28.966Z,4.10
2023-02-21T22:12:59.918Z,5.10
2023-02-21T22:15:29.228Z,5.60
2023-02-21T22:18:01.905Z,5.00
2023-02-21T22:20:31.256Z,2.30
2023-02-21T22:22:59.328Z,2.40
2023-02-21T22:25:30.287Z,4.70
2023-02-21T22:28:02.744Z,3.10
2023-02-21T22:30:31.584Z,4.10
2023-02-21T22:32:59.910Z,3.70
2023-02-21T22:35:28.611Z,3.60
2023-02-21T22:37:58.171Z,4.20
2023-02-21T22:40:26.902Z,4.60
2023-02-21T22:42:57.207Z,4.30
2023-02-21T22:45:26.261Z,3.60
2023-02-21T22:47:55.767Z,4.20
2023-02-21T22:50:24.467Z,4.50
2023-02-21T22:52:56.958Z,5.20
2023-02-21T22:55:25.985Z,4.20
2023-02-21T22:57:55.675Z,4.90
2023-02-21T23:00:33.193Z,4.10
2023-02-21T23:03:15.735Z,4.30
2023-02-21T23:05:54.969Z,4.30
2023-02-21T23:08:23.996Z,4.30
2023-02-21T23:10:51.964Z,5.10
2023-02-21T23:13:22.969Z,4.80
2023-02-21T23:15:51.457Z,4.40
2023-02-21T23:18:23.318Z,5.30
2023-02-21T23:20:54.061Z,4.90
2023-02-21T23:23:26.071Z,4.20
2023-02-21T23:25:58.789Z,4.30
2023-02-21T23:28:29.058Z,4.40
2023-02-21T23:30:58.223Z,4.60
2023-02-21T23:33:28.153Z,4.10
2023-02-21T23:35:57.077Z,4.30
2023-02-21T23:38:28.290Z,5.80
2023-02-21T23:41:01.979Z,4.50
2023-02-21T23:43:30.870Z,5.10
2023-02-21T23:46:00.306Z,5.20
2023-02-21T23:48:29.701Z,6.20
2023-02-21T23:50:58.004Z,5.70
2023-02-21T23:53:27.597Z,7.70
2023-02-21T23:55:57.716Z,7.00
2023-02-21T23:58:27.577Z,7.50
